createdAt,value
2022-12-24T00:00:00.494Z,88.14
2022-12-24T00:01:00.443Z,88.14
2022-12-24T00:02:00.480Z,88.14
2022-12-24T00:03:00.643Z,88.17
2022-12-24T00:04:00.476Z,88.17
2022-12-24T00:05:01.379Z,88.17
2022-12-24T00:06:09.227Z,88.17
2022-12-24T00:07:00.512Z,88.17
2022-12-24T00:08:00.469Z,88.15
2022-12-24T00:09:00.579Z,88.15
2022-12-24T00:10:00.483Z,88.15
2022-12-24T00:11:00.445Z,88.15
2022-12-24T00:12:00.496Z,88.15
2022-12-24T00:13:00.460Z,88.47
2022-12-24T00:14:00.616Z,88.47
2022-12-24T00:15:00.605Z,88.47
2022-12-24T00:16:00.538Z,88.47
2022-12-24T00:17:00.523Z,88.47
2022-12-24T00:18:00.453Z,88.45
2022-12-24T00:19:00.471Z,88.45
2022-12-24T00:20:00.559Z,88.45
2022-12-24T00:21:00.559Z,88.45
2022-12-24T00:22:00.459Z,88.45
2022-12-24T00:23:00.563Z,88.05
2022-12-24T00:24:00.466Z,88.05
2022-12-24T00:25:00.485Z,88.05
2022-12-24T00:26:00.463Z,88.05
2022-12-24T00:27:00.454Z,88.05
2022-12-24T00:28:00.503Z,88.88
2022-12-24T00:29:00.544Z,88.88
2022-12-24T00:30:00.447Z,88.88
2022-12-24T00:31:06.057Z,88.88
2022-12-24T00:32:00.519Z,88.88
2022-12-24T00:33:00.441Z,89.15
2022-12-24T00:34:00.448Z,89.15
2022-12-24T00:35:00.460Z,89.15
2022-12-24T00:36:00.488Z,89.15
2022-12-24T00:37:00.467Z,89.15
2022-12-24T00:38:00.539Z,88.80
2022-12-24T00:39:00.477Z,88.80
2022-12-24T00:40:00.457Z,88.80
2022-12-24T00:41:03.101Z,88.80
2022-12-24T00:42:00.455Z,88.80
2022-12-24T00:43:00.455Z,88.97
2022-12-24T00:44:01.717Z,88.97
2022-12-24T00:45:00.446Z,88.97
2022-12-24T00:46:00.531Z,88.97
2022-12-24T00:47:00.483Z,88.97
2022-12-24T00:48:00.472Z,88.58
2022-12-24T00:49:00.874Z,88.58
2022-12-24T00:50:00.471Z,88.58
2022-12-24T00:51:00.512Z,88.58
2022-12-24T00:52:00.465Z,88.58
2022-12-24T00:53:00.475Z,88.58
2022-12-24T00:54:00.649Z,88.58
2022-12-24T00:55:00.448Z,88.58
2022-12-24T00:56:00.454Z,88.58
2022-12-24T00:57:00.476Z,88.58
2022-12-24T00:58:00.498Z,88.56
2022-12-24T00:59:00.647Z,88.56
2022-12-24T01:00:00.480Z,88.56
2022-12-24T01:01:00.519Z,88.56
2022-12-24T01:02:00.564Z,88.56
2022-12-24T01:03:00.576Z,88.50
2022-12-24T01:04:00.444Z,88.50
2022-12-24T01:05:00.454Z,88.50
2022-12-24T01:06:01.690Z,88.50
2022-12-24T01:07:00.512Z,88.50
2022-12-24T01:08:00.453Z,88.54
2022-12-24T01:09:00.476Z,88.54
2022-12-24T01:10:00.491Z,88.54
2022-12-24T01:11:03.745Z,88.54
2022-12-24T01:12:00.460Z,88.54
2022-12-24T01:13:00.884Z,88.66
2022-12-24T01:14:00.478Z,88.66
2022-12-24T01:15:00.470Z,88.66
2022-12-24T01:16:00.689Z,88.66
2022-12-24T01:17:00.457Z,88.66
2022-12-24T01:18:00.460Z,88.53
2022-12-24T01:19:00.522Z,88.53
2022-12-24T01:20:00.924Z,88.53
2022-12-24T01:21:01.767Z,88.53
2022-12-24T01:22:00.465Z,88.53
2022-12-24T01:23:00.447Z,88.43
2022-12-24T01:24:00.466Z,88.43
2022-12-24T01:25:00.476Z,88.43
2022-12-24T01:26:01.253Z,88.43
2022-12-24T01:27:00.440Z,88.43
2022-12-24T01:28:00.456Z,88.60
2022-12-24T01:29:00.454Z,88.60
2022-12-24T01:30:00.502Z,88.60
2022-12-24T01:31:00.507Z,88.60
2022-12-24T01:32:00.459Z,88.60
2022-12-24T01:33:00.480Z,88.47
2022-12-24T01:34:00.492Z,88.47
2022-12-24T01:35:00.459Z,88.47
2022-12-24T01:36:01.895Z,88.47
2022-12-24T01:37:00.542Z,88.47
2022-12-24T01:38:00.453Z,88.25
2022-12-24T01:39:00.458Z,88.25
2022-12-24T01:40:00.501Z,88.25
2022-12-24T01:41:00.468Z,88.25
2022-12-24T01:42:00.489Z,88.25
2022-12-24T01:43:00.535Z,87.89
2022-12-24T01:44:10.371Z,87.89
2022-12-24T01:45:10.359Z,87.89
2022-12-24T01:46:02.465Z,87.89
2022-12-24T01:47:05.555Z,87.89
2022-12-24T01:48:00.580Z,87.82
2022-12-24T01:49:03.258Z,87.82
2022-12-24T01:50:02.810Z,87.82
2022-12-24T01:51:04.225Z,87.82
2022-12-24T01:52:04.230Z,87.82
2022-12-24T01:53:01.415Z,87.88
2022-12-24T01:54:04.487Z,87.88
2022-12-24T01:55:03.919Z,87.88
2022-12-24T01:56:01.084Z,87.88
2022-12-24T01:57:03.537Z,87.88
2022-12-24T01:58:02.584Z,88.06
2022-12-24T01:59:04.420Z,88.06
2022-12-24T02:00:02.096Z,88.06
2022-12-24T02:01:00.619Z,88.06
2022-12-24T02:02:00.668Z,88.06
2022-12-24T02:03:00.806Z,87.89
2022-12-24T02:04:03.913Z,87.89
2022-12-24T02:05:03.785Z,87.89
2022-12-24T02:06:00.689Z,87.89
2022-12-24T02:07:00.619Z,87.89
2022-12-24T02:08:01.596Z,87.72
2022-12-24T02:09:00.816Z,87.72
2022-12-24T02:10:00.899Z,87.72
2022-12-24T02:11:00.438Z,87.72
2022-12-24T02:12:00.923Z,87.72
2022-12-24T02:13:01.702Z,87.56
2022-12-24T02:14:01.115Z,87.56
2022-12-24T02:15:00.666Z,87.56
2022-12-24T02:16:07.603Z,87.56
2022-12-24T02:17:04.457Z,87.56
2022-12-24T02:18:00.459Z,87.61
2022-12-24T02:19:10.357Z,87.61
2022-12-24T02:20:00.489Z,87.61
2022-12-24T02:21:10.361Z,87.61
2022-12-24T02:22:10.360Z,87.38
2022-12-24T02:23:00.439Z,87.38
2022-12-24T02:24:10.368Z,87.38
2022-12-24T02:25:10.364Z,87.38
2022-12-24T02:26:10.420Z,87.38
2022-12-24T02:27:08.582Z,87.38
2022-12-24T02:28:07.903Z,87.49
2022-12-24T02:29:00.460Z,87.49
2022-12-24T02:30:01.465Z,87.49
2022-12-24T02:31:03.104Z,87.49
2022-12-24T02:32:04.839Z,87.49
2022-12-24T02:33:10.356Z,87.38
2022-12-24T02:34:06.542Z,87.38
2022-12-24T02:35:10.391Z,87.38
2022-12-24T02:36:03.822Z,87.38
2022-12-24T02:37:05.244Z,87.38
2022-12-24T02:38:04.019Z,87.41
2022-12-24T02:39:03.201Z,87.41
2022-12-24T02:40:00.459Z,87.41
2022-12-24T02:41:02.752Z,87.41
2022-12-24T02:42:01.750Z,87.41
2022-12-24T02:43:04.726Z,87.32
2022-12-24T02:44:00.760Z,87.32
2022-12-24T02:45:02.206Z,87.32
2022-12-24T02:46:04.522Z,87.32
2022-12-24T02:47:02.825Z,87.32
2022-12-24T02:48:00.603Z,87.26
2022-12-24T02:49:00.934Z,87.26
2022-12-24T02:50:01.263Z,87.26
2022-12-24T02:51:02.971Z,87.26
2022-12-24T02:52:00.452Z,87.26
2022-12-24T02:53:00.461Z,87.25
2022-12-24T02:54:00.491Z,87.25
2022-12-24T02:55:06.112Z,87.25
2022-12-24T02:56:10.372Z,87.25
2022-12-24T02:57:10.367Z,87.25
2022-12-24T02:58:07.828Z,87.36
2022-12-24T02:59:10.370Z,87.36
2022-12-24T03:00:04.944Z,87.36
2022-12-24T03:01:00.470Z,87.36
2022-12-24T03:02:01.528Z,87.36
2022-12-24T03:03:08.151Z,87.30
2022-12-24T03:04:03.723Z,87.30
2022-12-24T03:05:10.360Z,87.30
2022-12-24T03:06:00.435Z,87.30
2022-12-24T03:07:05.456Z,87.30
2022-12-24T03:08:04.660Z,87.27
2022-12-24T03:09:07.574Z,87.27
2022-12-24T03:10:10.354Z,87.27
2022-12-24T03:11:04.001Z,87.27
2022-12-24T03:12:06.747Z,87.27
2022-12-24T03:13:03.961Z,87.42
2022-12-24T03:14:00.645Z,87.42
2022-12-24T03:15:01.202Z,87.42
2022-12-24T03:16:03.542Z,87.42
2022-12-24T03:17:01.900Z,87.42
2022-12-24T03:18:01.457Z,87.32
2022-12-24T03:19:00.578Z,87.32
2022-12-24T03:20:01.033Z,87.32
2022-12-24T03:21:10.371Z,87.32
2022-12-24T03:22:03.244Z,87.32
2022-12-24T03:23:01.344Z,87.30
2022-12-24T03:24:00.609Z,87.30
2022-12-24T03:25:00.523Z,87.30
2022-12-24T03:26:03.484Z,87.30
2022-12-24T03:27:01.342Z,87.30
2022-12-24T03:28:02.220Z,87.39
2022-12-24T03:29:03.222Z,87.39
2022-12-24T03:30:01.174Z,87.39
2022-12-24T03:31:02.062Z,87.39
2022-12-24T03:32:02.073Z,87.39
2022-12-24T03:33:00.451Z,87.45
2022-12-24T03:34:00.495Z,87.45
2022-12-24T03:35:00.581Z,87.45
2022-12-24T03:36:00.531Z,87.45
2022-12-24T03:37:00.503Z,87.45
2022-12-24T03:38:00.589Z,87.37
2022-12-24T03:39:00.447Z,87.37
2022-12-24T03:40:00.505Z,87.37
2022-12-24T03:41:01.664Z,87.37
2022-12-24T03:42:00.518Z,87.37
2022-12-24T03:43:00.454Z,87.10
2022-12-24T03:44:00.457Z,87.10
2022-12-24T03:45:00.484Z,87.10
2022-12-24T03:46:04.865Z,87.10
2022-12-24T03:47:00.453Z,87.10
2022-12-24T03:48:00.454Z,87.23
2022-12-24T03:49:00.467Z,87.23
2022-12-24T03:50:00.448Z,87.23
2022-12-24T03:51:00.803Z,87.23
2022-12-24T03:52:00.470Z,87.23
2022-12-24T03:53:00.450Z,87.12
2022-12-24T03:54:00.470Z,87.12
2022-12-24T03:55:00.477Z,87.12
2022-12-24T03:56:00.481Z,87.12
2022-12-24T03:57:00.470Z,87.12
2022-12-24T03:58:00.496Z,87.16
2022-12-24T03:59:00.449Z,87.16
2022-12-24T04:00:00.458Z,87.16
2022-12-24T04:01:00.521Z,87.16
2022-12-24T04:02:00.622Z,87.16
2022-12-24T04:03:00.479Z,87.12
2022-12-24T04:04:00.503Z,87.12
2022-12-24T04:05:00.437Z,87.12
2022-12-24T04:06:01.504Z,87.12
2022-12-24T04:07:00.439Z,87.12
2022-12-24T04:08:00.452Z,87.05
2022-12-24T04:09:00.495Z,87.05
2022-12-24T04:10:00.441Z,87.05
2022-12-24T04:11:06.194Z,87.05
2022-12-24T04:12:00.465Z,87.05
2022-12-24T04:13:00.446Z,87.23
2022-12-24T04:14:00.450Z,87.23
2022-12-24T04:15:00.575Z,87.23
2022-12-24T04:16:03.440Z,87.23
2022-12-24T04:17:01.609Z,87.23
2022-12-24T04:18:01.447Z,87.32
2022-12-24T04:19:05.491Z,87.32
2022-12-24T04:20:00.456Z,87.32
2022-12-24T04:21:00.673Z,87.32
2022-12-24T04:22:00.465Z,87.32
2022-12-24T04:23:00.447Z,87.35
2022-12-24T04:24:00.463Z,87.35
2022-12-24T04:25:00.457Z,87.35
2022-12-24T04:26:01.315Z,87.35
2022-12-24T04:27:00.461Z,87.35
2022-12-24T04:28:00.484Z,87.44
2022-12-24T04:29:00.439Z,87.44
2022-12-24T04:30:00.500Z,87.44
2022-12-24T04:31:01.263Z,87.44
2022-12-24T04:32:00.656Z,87.44
2022-12-24T04:33:00.472Z,87.42
2022-12-24T04:34:00.560Z,87.42
2022-12-24T04:35:00.444Z,87.42
2022-12-24T04:36:01.125Z,87.42
2022-12-24T04:37:00.464Z,87.42
2022-12-24T04:38:00.488Z,87.46
2022-12-24T04:39:00.465Z,87.46
2022-12-24T04:40:00.455Z,87.46
2022-12-24T04:41:03.239Z,87.46
2022-12-24T04:42:00.534Z,87.46
2022-12-24T04:43:00.466Z,87.33
2022-12-24T04:44:00.491Z,87.33
2022-12-24T04:45:00.465Z,87.33
2022-12-24T04:46:05.207Z,87.33
2022-12-24T04:47:00.462Z,87.33
2022-12-24T04:48:00.498Z,87.50
2022-12-24T04:49:00.483Z,87.50
2022-12-24T04:50:00.456Z,87.50
2022-12-24T04:51:01.879Z,87.50
2022-12-24T04:52:00.449Z,87.50
2022-12-24T04:53:01.970Z,87.38
2022-12-24T04:54:00.457Z,87.38
2022-12-24T04:55:00.533Z,87.38
2022-12-24T04:56:00.590Z,87.38
2022-12-24T04:57:00.461Z,87.38
2022-12-24T04:58:00.458Z,87.67
2022-12-24T04:59:00.557Z,87.67
2022-12-24T05:00:01.175Z,87.67
2022-12-24T05:01:04.155Z,87.67
2022-12-24T05:02:00.626Z,87.67
2022-12-24T05:03:00.523Z,87.54
2022-12-24T05:04:00.503Z,87.54
2022-12-24T05:05:00.462Z,87.54
2022-12-24T05:06:01.825Z,87.54
2022-12-24T05:07:00.477Z,87.54
2022-12-24T05:08:00.462Z,87.52
2022-12-24T05:09:00.520Z,87.52
2022-12-24T05:10:00.443Z,87.52
2022-12-24T05:11:00.836Z,87.52
2022-12-24T05:12:00.476Z,87.52
2022-12-24T05:13:00.451Z,87.59
2022-12-24T05:14:00.466Z,87.59
2022-12-24T05:15:00.456Z,87.59
2022-12-24T05:16:00.866Z,87.59
2022-12-24T05:17:00.558Z,87.59
2022-12-24T05:18:00.489Z,87.72
2022-12-24T05:19:00.481Z,87.72
2022-12-24T05:20:00.468Z,87.72
2022-12-24T05:21:00.483Z,87.72
2022-12-24T05:22:00.450Z,87.72
2022-12-24T05:23:00.446Z,87.77
2022-12-24T05:24:01.203Z,87.77
2022-12-24T05:25:00.449Z,87.77
2022-12-24T05:26:00.478Z,87.77
2022-12-24T05:27:00.479Z,87.77
2022-12-24T05:28:00.585Z,87.93
2022-12-24T05:29:01.108Z,87.93
2022-12-24T05:30:00.484Z,87.93
2022-12-24T05:31:00.480Z,87.93
2022-12-24T05:32:00.438Z,87.93
2022-12-24T05:33:00.447Z,87.89
2022-12-24T05:34:00.827Z,87.89
2022-12-24T05:35:00.482Z,87.89
2022-12-24T05:36:00.450Z,87.89
2022-12-24T05:37:00.484Z,87.89
2022-12-24T05:38:00.468Z,87.89
2022-12-24T05:39:00.491Z,87.89
2022-12-24T05:40:00.450Z,87.89
2022-12-24T05:41:00.503Z,87.89
2022-12-24T05:42:00.455Z,87.89
2022-12-24T05:43:00.558Z,87.83
2022-12-24T05:44:00.476Z,87.83
2022-12-24T05:45:00.450Z,87.83
2022-12-24T05:46:01.319Z,87.83
2022-12-24T05:47:00.491Z,87.83
2022-12-24T05:48:00.481Z,87.89
2022-12-24T05:49:00.453Z,87.89
2022-12-24T05:50:00.503Z,87.89
2022-12-24T05:51:03.161Z,87.89
2022-12-24T05:52:00.457Z,87.89
2022-12-24T05:53:00.452Z,87.93
2022-12-24T05:54:00.488Z,87.93
2022-12-24T05:55:00.461Z,87.93
2022-12-24T05:56:04.979Z,87.93
2022-12-24T05:57:00.445Z,87.93
2022-12-24T05:58:00.469Z,88.14
2022-12-24T05:59:00.495Z,88.14
2022-12-24T06:00:02.117Z,88.14
2022-12-24T06:01:01.072Z,88.14
2022-12-24T06:02:00.630Z,88.14
2022-12-24T06:03:00.538Z,88.00
2022-12-24T06:04:01.089Z,88.00
2022-12-24T06:05:00.497Z,88.00
2022-12-24T06:06:03.172Z,88.00
2022-12-24T06:07:00.471Z,88.00
2022-12-24T06:08:00.463Z,87.94
2022-12-24T06:09:00.463Z,87.94
2022-12-24T06:10:00.489Z,87.94
2022-12-24T06:11:01.800Z,87.94
2022-12-24T06:12:00.444Z,87.94
2022-12-24T06:13:00.479Z,88.00
2022-12-24T06:14:00.482Z,88.00
2022-12-24T06:15:00.493Z,88.00
2022-12-24T06:16:01.647Z,88.00
2022-12-24T06:17:00.482Z,88.00
2022-12-24T06:18:00.526Z,87.98
2022-12-24T06:19:00.456Z,87.98
2022-12-24T06:20:00.445Z,87.98
2022-12-24T06:21:00.803Z,87.98
2022-12-24T06:22:00.483Z,87.98
2022-12-24T06:23:00.450Z,87.98
2022-12-24T06:24:00.510Z,87.98
2022-12-24T06:25:00.458Z,87.98
2022-12-24T06:26:01.283Z,87.98
2022-12-24T06:27:00.461Z,87.98
2022-12-24T06:28:01.013Z,88.07
2022-12-24T06:29:00.462Z,88.07
2022-12-24T06:30:00.467Z,88.07
2022-12-24T06:31:03.364Z,88.07
2022-12-24T06:32:00.647Z,88.07
2022-12-24T06:33:00.467Z,88.05
2022-12-24T06:34:00.461Z,88.05
2022-12-24T06:35:00.451Z,88.05
2022-12-24T06:36:00.949Z,88.05
2022-12-24T06:37:00.497Z,88.05
2022-12-24T06:38:00.472Z,87.96
2022-12-24T06:39:00.493Z,87.96
2022-12-24T06:40:00.436Z,87.96
2022-12-24T06:41:04.242Z,87.96
2022-12-24T06:42:00.461Z,87.96
2022-12-24T06:43:00.452Z,87.99
2022-12-24T06:44:00.485Z,87.99
2022-12-24T06:45:07.649Z,87.99
2022-12-24T06:46:00.915Z,87.99
2022-12-24T06:47:00.555Z,87.99
2022-12-24T06:48:00.471Z,88.02
2022-12-24T06:49:00.524Z,88.02
2022-12-24T06:50:00.518Z,88.02
2022-12-24T06:51:01.187Z,88.02
2022-12-24T06:52:00.445Z,88.02
2022-12-24T06:53:00.525Z,87.96
2022-12-24T06:54:00.446Z,87.96
2022-12-24T06:55:00.726Z,87.96
2022-12-24T06:56:01.367Z,87.96
2022-12-24T06:57:00.441Z,87.96
2022-12-24T06:58:00.507Z,88.08
2022-12-24T06:59:05.346Z,88.08
2022-12-24T07:00:00.676Z,88.08
2022-12-24T07:01:01.204Z,88.08
2022-12-24T07:02:00.613Z,88.08
2022-12-24T07:03:00.585Z,88.23
2022-12-24T07:04:00.564Z,88.23
2022-12-24T07:05:00.459Z,88.23
2022-12-24T07:06:00.470Z,88.23
2022-12-24T07:07:00.446Z,88.23
2022-12-24T07:08:00.474Z,88.13
2022-12-24T07:09:00.452Z,88.13
2022-12-24T07:10:00.442Z,88.13
2022-12-24T07:11:00.598Z,88.13
2022-12-24T07:12:00.480Z,88.13
2022-12-24T07:13:00.452Z,88.24
2022-12-24T07:14:00.471Z,88.24
2022-12-24T07:15:00.454Z,88.24
2022-12-24T07:16:02.052Z,88.24
2022-12-24T07:17:00.582Z,88.24
2022-12-24T07:18:00.466Z,88.50
2022-12-24T07:19:00.453Z,88.50
2022-12-24T07:20:00.513Z,88.50
2022-12-24T07:21:02.522Z,88.50
2022-12-24T07:22:00.444Z,88.50
2022-12-24T07:23:00.493Z,88.25
2022-12-24T07:24:00.523Z,88.25
2022-12-24T07:25:00.460Z,88.25
2022-12-24T07:26:01.421Z,88.25
2022-12-24T07:27:00.468Z,88.25
2022-12-24T07:28:00.446Z,88.29
2022-12-24T07:29:00.482Z,88.29
2022-12-24T07:30:00.507Z,88.29
2022-12-24T07:31:00.703Z,88.29
2022-12-24T07:32:00.562Z,88.29
2022-12-24T07:33:00.451Z,88.11
2022-12-24T07:34:00.473Z,88.11
2022-12-24T07:35:00.562Z,88.11
2022-12-24T07:36:01.408Z,88.11
2022-12-24T07:37:00.682Z,88.11
2022-12-24T07:38:00.904Z,88.10
2022-12-24T07:39:00.454Z,88.10
2022-12-24T07:40:00.522Z,88.10
2022-12-24T07:41:00.585Z,88.10
2022-12-24T07:42:00.479Z,88.10
2022-12-24T07:43:00.447Z,87.90
2022-12-24T07:44:00.473Z,87.90
2022-12-24T07:45:00.438Z,87.90
2022-12-24T07:46:00.513Z,87.90
2022-12-24T07:47:00.575Z,87.90
2022-12-24T07:48:00.450Z,87.86
2022-12-24T07:49:00.480Z,87.86
2022-12-24T07:50:00.534Z,87.86
2022-12-24T07:51:00.606Z,87.86
2022-12-24T07:52:00.583Z,87.86
2022-12-24T07:53:00.462Z,87.96
2022-12-24T07:54:00.455Z,87.96
2022-12-24T07:55:00.575Z,87.96
2022-12-24T07:56:00.462Z,87.96
2022-12-24T07:57:00.471Z,87.96
2022-12-24T07:58:00.497Z,88.21
2022-12-24T07:59:00.499Z,88.21
2022-12-24T08:00:00.454Z,88.21
2022-12-24T08:01:00.466Z,88.21
2022-12-24T08:02:00.625Z,88.21
2022-12-24T08:03:00.693Z,88.17
2022-12-24T08:04:00.540Z,88.17
2022-12-24T08:05:00.454Z,88.17
2022-12-24T08:06:00.455Z,88.17
2022-12-24T08:07:00.534Z,88.17
2022-12-24T08:08:00.518Z,88.17
2022-12-24T08:09:00.525Z,88.17
2022-12-24T08:10:00.514Z,88.17
2022-12-24T08:11:01.117Z,88.17
2022-12-24T08:12:00.785Z,88.17
2022-12-24T08:13:00.445Z,87.97
2022-12-24T08:14:00.448Z,87.97
2022-12-24T08:15:00.446Z,87.97
2022-12-24T08:16:00.639Z,87.97
2022-12-24T08:17:00.465Z,87.97
2022-12-24T08:18:00.446Z,88.42
2022-12-24T08:19:00.453Z,88.42
2022-12-24T08:20:00.561Z,88.42
2022-12-24T08:21:00.457Z,88.42
2022-12-24T08:22:00.452Z,88.42
2022-12-24T08:23:00.461Z,88.06
2022-12-24T08:24:00.449Z,88.06
2022-12-24T08:25:00.507Z,88.06
2022-12-24T08:26:00.448Z,88.06
2022-12-24T08:27:00.472Z,88.06
2022-12-24T08:28:00.478Z,88.29
2022-12-24T08:29:00.797Z,88.29
2022-12-24T08:30:00.471Z,88.29
2022-12-24T08:31:00.472Z,88.29
2022-12-24T08:32:00.502Z,88.29
2022-12-24T08:33:00.690Z,88.13
2022-12-24T08:34:00.647Z,88.13
2022-12-24T08:35:00.461Z,88.13
2022-12-24T08:36:01.208Z,88.13
2022-12-24T08:37:00.474Z,88.13
2022-12-24T08:38:00.483Z,88.21
2022-12-24T08:39:00.464Z,88.21
2022-12-24T08:40:00.516Z,88.21
2022-12-24T08:41:00.484Z,88.21
2022-12-24T08:42:00.507Z,88.21
2022-12-24T08:43:01.130Z,88.33
2022-12-24T08:44:00.450Z,88.33
2022-12-24T08:45:00.473Z,88.33
2022-12-24T08:46:01.222Z,88.33
2022-12-24T08:47:00.517Z,88.33
2022-12-24T08:48:00.444Z,88.37
2022-12-24T08:49:00.454Z,88.37
2022-12-24T08:50:00.457Z,88.37
2022-12-24T08:51:04.638Z,88.37
2022-12-24T08:52:00.470Z,88.37
2022-12-24T08:53:00.464Z,88.28
2022-12-24T08:54:00.491Z,88.28
2022-12-24T08:55:00.744Z,88.28
2022-12-24T08:56:01.370Z,88.28
2022-12-24T08:57:00.486Z,88.28
2022-12-24T08:58:00.449Z,88.42
2022-12-24T08:59:00.707Z,88.42
2022-12-24T09:00:00.448Z,88.42
2022-12-24T09:01:00.489Z,88.42
2022-12-24T09:02:00.721Z,88.42
2022-12-24T09:03:00.760Z,88.44
2022-12-24T09:04:00.842Z,88.44
2022-12-24T09:05:00.457Z,88.44
2022-12-24T09:06:02.526Z,88.44
2022-12-24T09:07:00.457Z,88.44
2022-12-24T09:08:00.631Z,88.40
2022-12-24T09:09:00.811Z,88.40
2022-12-24T09:10:00.493Z,88.40
2022-12-24T09:11:03.355Z,88.40
2022-12-24T09:12:00.479Z,88.40
2022-12-24T09:13:00.471Z,88.39
2022-12-24T09:14:00.656Z,88.39
2022-12-24T09:15:03.671Z,88.39
2022-12-24T09:16:00.836Z,88.39
2022-12-24T09:17:00.574Z,88.39
2022-12-24T09:18:00.621Z,88.23
2022-12-24T09:19:00.496Z,88.23
2022-12-24T09:20:00.488Z,88.23
2022-12-24T09:21:01.249Z,88.23
2022-12-24T09:22:00.440Z,88.23
2022-12-24T09:23:00.472Z,88.16
2022-12-24T09:24:02.678Z,88.16
2022-12-24T09:25:00.460Z,88.16
2022-12-24T09:26:03.703Z,88.16
2022-12-24T09:27:00.589Z,88.16
2022-12-24T09:28:00.524Z,88.55
2022-12-24T09:29:00.878Z,88.55
2022-12-24T09:30:00.459Z,88.55
2022-12-24T09:31:02.399Z,88.55
2022-12-24T09:32:00.519Z,88.55
2022-12-24T09:33:00.440Z,88.37
2022-12-24T09:34:00.629Z,88.37
2022-12-24T09:35:00.530Z,88.37
2022-12-24T09:36:00.731Z,88.37
2022-12-24T09:37:00.443Z,88.37
2022-12-24T09:38:00.478Z,88.25
2022-12-24T09:39:00.904Z,88.25
2022-12-24T09:40:00.452Z,88.25
2022-12-24T09:41:05.361Z,88.25
2022-12-24T09:42:10.376Z,88.25
2022-12-24T09:43:03.665Z,88.19
2022-12-24T09:44:10.376Z,88.19
2022-12-24T09:45:01.475Z,88.19
2022-12-24T09:46:01.521Z,88.19
2022-12-24T09:47:08.185Z,88.19
2022-12-24T09:48:03.173Z,88.13
2022-12-24T09:49:03.467Z,88.13
2022-12-24T09:50:02.330Z,88.13
2022-12-24T09:51:03.808Z,88.13
2022-12-24T09:52:05.379Z,88.13
2022-12-24T09:53:03.638Z,88.14
2022-12-24T09:54:10.022Z,88.14
2022-12-24T09:55:04.058Z,88.14
2022-12-24T09:56:02.138Z,88.14
2022-12-24T09:57:04.148Z,88.14
2022-12-24T09:58:04.019Z,88.30
2022-12-24T09:59:01.845Z,88.30
2022-12-24T10:00:01.242Z,88.30
2022-12-24T10:01:00.653Z,88.30
2022-12-24T10:02:00.737Z,88.30
2022-12-24T10:03:00.590Z,88.24
2022-12-24T10:04:10.365Z,88.24
2022-12-24T10:05:00.443Z,88.24
2022-12-24T10:06:06.032Z,88.24
2022-12-24T10:07:07.148Z,88.24
2022-12-24T10:08:04.886Z,88.31
2022-12-24T10:09:09.201Z,88.31
2022-12-24T10:10:01.470Z,88.31
2022-12-24T10:11:06.635Z,88.31
2022-12-24T10:12:00.440Z,88.31
2022-12-24T10:13:07.826Z,88.27
2022-12-24T10:14:07.312Z,88.27
2022-12-24T10:15:09.438Z,88.27
2022-12-24T10:16:00.500Z,88.27
2022-12-24T10:17:10.452Z,88.27
2022-12-24T10:18:07.883Z,88.32
2022-12-24T10:19:10.351Z,88.32
2022-12-24T10:20:01.461Z,88.32
2022-12-24T10:21:09.458Z,88.32
2022-12-24T10:22:10.374Z,88.32
2022-12-24T10:23:05.335Z,88.42
2022-12-24T10:24:09.063Z,88.42
2022-12-24T10:25:05.705Z,88.42
2022-12-24T10:26:10.377Z,88.42
2022-12-24T10:27:04.687Z,88.42
2022-12-24T10:28:02.751Z,88.53
2022-12-24T10:29:04.366Z,88.53
2022-12-24T10:30:02.296Z,88.53
2022-12-24T10:31:03.050Z,88.53
2022-12-24T10:32:00.455Z,88.53
2022-12-24T10:33:00.727Z,88.56
2022-12-24T10:34:01.818Z,88.56
2022-12-24T10:35:01.455Z,88.56
2022-12-24T10:36:00.484Z,88.56
2022-12-24T10:37:01.405Z,88.56
2022-12-24T10:38:01.230Z,88.32
2022-12-24T10:39:00.531Z,88.32
2022-12-24T10:40:01.764Z,88.32
2022-12-24T10:41:00.612Z,88.32
2022-12-24T10:42:00.775Z,88.32
2022-12-24T10:43:00.470Z,88.40
2022-12-24T10:44:00.764Z,88.40
2022-12-24T10:45:02.580Z,88.40
2022-12-24T10:46:02.378Z,88.40
2022-12-24T10:47:00.448Z,88.40
2022-12-24T10:48:03.848Z,88.40
2022-12-24T10:49:01.555Z,88.40
2022-12-24T10:50:04.388Z,88.40
2022-12-24T10:51:02.193Z,88.40
2022-12-24T10:52:10.363Z,88.40
2022-12-24T10:53:10.127Z,88.32
2022-12-24T10:54:06.313Z,88.32
2022-12-24T10:55:10.368Z,88.32
2022-12-24T10:56:02.561Z,88.32
2022-12-24T10:57:01.357Z,88.32
2022-12-24T10:58:01.983Z,88.42
2022-12-24T10:59:00.500Z,88.42
2022-12-24T11:00:00.519Z,88.42
2022-12-24T11:01:00.684Z,88.42
2022-12-24T11:02:00.730Z,88.42
2022-12-24T11:03:10.508Z,88.38
2022-12-24T11:04:00.934Z,88.38
2022-12-24T11:05:01.411Z,88.38
2022-12-24T11:06:02.921Z,88.38
2022-12-24T11:07:01.618Z,88.38
2022-12-24T11:08:00.453Z,87.93
2022-12-24T11:09:10.392Z,87.93
2022-12-24T11:10:03.277Z,87.93
2022-12-24T11:11:02.016Z,87.93
2022-12-24T11:12:07.085Z,87.93
2022-12-24T11:13:35.718Z,87.70
2022-12-24T11:14:00.695Z,87.70
2022-12-24T11:15:04.635Z,87.70
2022-12-24T11:16:03.857Z,87.70
2022-12-24T11:17:00.598Z,87.70
2022-12-24T11:18:02.890Z,87.89
2022-12-24T11:19:02.859Z,87.89
2022-12-24T11:20:00.617Z,87.89
2022-12-24T11:21:00.929Z,87.89
2022-12-24T11:22:05.203Z,87.89
2022-12-24T11:23:01.197Z,87.90
2022-12-24T11:24:10.390Z,87.90
2022-12-24T11:25:05.590Z,87.90
2022-12-24T11:26:00.628Z,87.90
2022-12-24T11:27:10.392Z,87.90
2022-12-24T11:28:10.358Z,88.01
2022-12-24T11:29:07.954Z,88.01
2022-12-24T11:30:12.069Z,88.01
2022-12-24T11:31:00.528Z,88.01
2022-12-24T11:32:10.365Z,88.01
2022-12-24T11:33:00.461Z,87.83
2022-12-24T11:34:10.358Z,87.83
2022-12-24T11:35:04.692Z,87.83
2022-12-24T11:36:01.976Z,87.83
2022-12-24T11:37:14.527Z,87.83
2022-12-24T11:38:00.488Z,87.66
2022-12-24T11:39:00.482Z,87.66
2022-12-24T11:40:01.234Z,87.66
2022-12-24T11:41:02.684Z,87.66
2022-12-24T11:42:00.512Z,87.66
2022-12-24T11:43:01.810Z,87.78
2022-12-24T11:44:01.906Z,87.78
2022-12-24T11:45:03.442Z,87.78
2022-12-24T11:46:11.714Z,87.78
2022-12-24T11:47:00.457Z,87.78
2022-12-24T11:48:00.489Z,87.53
2022-12-24T11:49:07.784Z,87.53
2022-12-24T11:50:18.422Z,87.53
2022-12-24T11:51:02.186Z,87.53
2022-12-24T11:52:10.372Z,87.53
2022-12-24T11:53:01.459Z,87.37
2022-12-24T11:54:08.094Z,87.37
2022-12-24T11:55:00.439Z,87.37
2022-12-24T11:56:05.433Z,87.37
2022-12-24T11:57:00.798Z,87.37
2022-12-24T11:58:04.757Z,87.28
2022-12-24T11:59:06.232Z,87.28
2022-12-24T12:00:00.507Z,87.28
2022-12-24T12:01:03.739Z,87.28
2022-12-24T12:02:10.386Z,87.28
2022-12-24T12:03:01.997Z,86.97
2022-12-24T12:04:04.922Z,86.97
2022-12-24T12:05:06.730Z,86.97
2022-12-24T12:06:02.389Z,86.97
2022-12-24T12:07:03.514Z,86.97
2022-12-24T12:08:06.956Z,86.82
2022-12-24T12:09:04.427Z,86.82
2022-12-24T12:10:03.811Z,86.82
2022-12-24T12:11:10.382Z,86.82
2022-12-24T12:12:10.355Z,86.82
2022-12-24T12:13:14.906Z,86.73
2022-12-24T12:14:02.222Z,86.73
2022-12-24T12:15:05.439Z,86.73
2022-12-24T12:16:04.413Z,86.73
2022-12-24T12:17:05.342Z,86.73
2022-12-24T12:18:00.453Z,86.45
2022-12-24T12:19:03.088Z,86.45
2022-12-24T12:20:08.338Z,86.45
2022-12-24T12:21:05.335Z,86.45
2022-12-24T12:22:03.141Z,86.45
2022-12-24T12:23:10.376Z,86.41
2022-12-24T12:24:04.009Z,86.41
2022-12-24T12:25:01.809Z,86.41
2022-12-24T12:26:01.477Z,86.41
2022-12-24T12:27:08.374Z,86.41
2022-12-24T12:28:02.273Z,86.40
2022-12-24T12:29:10.160Z,86.40
2022-12-24T12:30:02.564Z,86.40
2022-12-24T12:31:08.073Z,86.40
2022-12-24T12:32:05.486Z,86.40
2022-12-24T12:33:04.112Z,86.54
2022-12-24T12:34:10.359Z,86.54
2022-12-24T12:35:04.161Z,86.54
2022-12-24T12:36:01.668Z,86.54
2022-12-24T12:37:08.340Z,86.54
2022-12-24T12:38:02.827Z,86.52
2022-12-24T12:39:00.723Z,86.52
2022-12-24T12:40:00.585Z,86.52
2022-12-24T12:41:08.105Z,86.52
2022-12-24T12:42:03.734Z,86.52
2022-12-24T12:43:14.206Z,86.67
2022-12-24T12:44:06.329Z,86.67
2022-12-24T12:45:10.379Z,86.67
2022-12-24T12:46:07.615Z,86.67
2022-12-24T12:47:10.430Z,86.67
2022-12-24T12:48:08.227Z,86.72
2022-12-24T12:49:03.129Z,86.72
2022-12-24T12:50:10.481Z,86.72
2022-12-24T12:51:10.354Z,86.72
2022-12-24T12:52:06.923Z,86.72